createdAt,value
2022-09-30T00:00:17.194Z,72.30
2022-09-30T00:01:22.715Z,71.90
2022-09-30T00:01:54.638Z,72.00
2022-09-30T00:02:26.469Z,71.80
2022-09-30T00:02:58.715Z,71.90
2022-09-30T00:04:35.286Z,71.80
2022-09-30T00:05:07.343Z,71.90
2022-09-30T00:05:39.064Z,71.80
2022-09-30T00:06:11.808Z,72.50
2022-09-30T00:06:44.157Z,71.90
2022-09-30T00:07:16.122Z,71.90
2022-09-30T00:07:47.888Z,72.10
2022-09-30T00:08:53.321Z,71.70
2022-09-30T00:09:25.313Z,73.70
2022-09-30T00:09:57.238Z,72.20
2022-09-30T00:10:29.331Z,72.20
2022-09-30T00:11:07.574Z,71.90
2022-09-30T00:11:40.804Z,71.80
2022-09-30T00:12:12.560Z,71.70
2022-09-30T00:14:24.063Z,71.50
2022-09-30T00:15:28.273Z,71.50
2022-09-30T00:16:00.467Z,71.70
2022-09-30T00:16:37.438Z,71.70
2022-09-30T00:17:41.422Z,71.50
2022-09-30T00:18:13.234Z,71.50
2022-09-30T00:19:50.174Z,71.40
2022-09-30T00:20:22.121Z,71.50
2022-09-30T00:21:28.622Z,71.70
2022-09-30T00:22:00.360Z,71.70
2022-09-30T00:22:32.106Z,72.10
2022-09-30T00:23:03.864Z,72.10
2022-09-30T00:23:38.663Z,73.20
2022-09-30T00:24:10.954Z,72.20
2022-09-30T00:24:42.687Z,72.90
2022-09-30T00:25:16.069Z,74.40
2022-09-30T00:25:48.433Z,72.90
2022-09-30T00:26:23.098Z,72.90
2022-09-30T00:26:54.891Z,72.80
2022-09-30T00:27:26.698Z,72.40
2022-09-30T00:27:58.735Z,72.90
2022-09-30T00:28:30.711Z,73.10
2022-09-30T00:29:04.087Z,73.00
2022-09-30T00:29:35.779Z,72.90
2022-09-30T00:30:07.975Z,73.50
2022-09-30T00:30:39.694Z,73.00
2022-09-30T00:31:14.825Z,74.20
2022-09-30T00:31:46.718Z,72.90
2022-09-30T00:32:18.555Z,72.40
2022-09-30T00:32:50.256Z,72.40
2022-09-30T00:33:22.024Z,72.80
2022-09-30T00:34:10.072Z,73.60
2022-09-30T00:34:41.838Z,72.80
2022-09-30T00:35:13.627Z,72.40
2022-09-30T00:35:45.358Z,73.10
2022-09-30T00:36:17.093Z,73.00
2022-09-30T00:36:51.966Z,73.90
2022-09-30T00:37:23.762Z,73.70
2022-09-30T00:37:55.489Z,73.70
2022-09-30T00:38:27.645Z,72.70
2022-09-30T00:38:59.394Z,73.60
2022-09-30T00:39:31.396Z,72.50
2022-09-30T00:40:03.502Z,73.30
2022-09-30T00:40:38.503Z,73.00
2022-09-30T00:41:10.247Z,72.50
2022-09-30T00:41:43.446Z,73.90
2022-09-30T00:42:15.673Z,72.50
2022-09-30T00:43:53.844Z,71.60
2022-09-30T00:44:44.448Z,71.80
2022-09-30T00:45:18.047Z,71.80
2022-09-30T00:45:54.619Z,71.90
2022-09-30T00:47:38.673Z,71.60
2022-09-30T00:48:19.585Z,71.70
2022-09-30T00:48:54.152Z,71.90
2022-09-30T01:16:50.606Z,71.30
2022-09-30T01:18:45.656Z,71.40
2022-09-30T01:20:08.984Z,71.70
2022-09-30T01:27:02.331Z,71.80
2022-09-30T01:28:02.031Z,71.90
2022-09-30T01:33:07.165Z,71.80
2022-09-30T01:34:17.897Z,71.80
2022-09-30T01:35:00.051Z,71.70
2022-09-30T01:41:07.206Z,72.00
2022-09-30T04:17:49.512Z,73.90
2022-09-30T04:28:44.137Z,74.10
2022-09-30T04:33:08.258Z,74.20
2022-09-30T04:36:21.689Z,74.40
2022-09-30T04:39:35.197Z,74.50
2022-09-30T04:43:30.213Z,74.40
2022-09-30T04:57:50.258Z,74.40
2022-09-30T05:10:22.807Z,74.40
2022-09-30T05:15:50.359Z,74.40
2022-09-30T05:30:31.298Z,74.80
2022-09-30T05:34:58.590Z,74.80
2022-09-30T05:39:23.005Z,74.80
2022-09-30T05:40:27.602Z,74.70
2022-09-30T05:41:32.720Z,74.80
2022-09-30T05:44:19.645Z,74.90
2022-09-30T05:49:11.816Z,75.00
2022-09-30T05:53:01.014Z,74.80
2022-09-30T05:53:35.099Z,75.00
2022-09-30T05:54:07.427Z,75.00
2022-09-30T05:54:40.235Z,75.00
2022-09-30T06:00:47.768Z,75.30
2022-09-30T06:01:19.579Z,75.50
2022-09-30T06:01:51.471Z,75.60
2022-09-30T06:02:23.629Z,75.60
2022-09-30T06:05:38.077Z,75.30
2022-09-30T06:06:42.309Z,75.30
2022-09-30T06:07:14.047Z,75.30
2022-09-30T06:08:17.927Z,75.40
2022-09-30T06:08:50.049Z,75.50
2022-09-30T06:09:54.329Z,75.40
2022-09-30T06:10:26.098Z,75.60
2022-09-30T06:11:00.794Z,75.60
2022-09-30T06:11:32.809Z,75.60
2022-09-30T06:12:06.201Z,75.80
2022-09-30T06:13:11.591Z,75.70
2022-09-30T06:14:19.836Z,75.90
2022-09-30T06:14:51.537Z,76.10
2022-09-30T06:15:23.310Z,76.00
2022-09-30T06:16:02.234Z,75.90
2022-09-30T06:17:06.634Z,75.80
2022-09-30T06:17:38.454Z,76.00
2022-09-30T06:18:17.002Z,76.10
2022-09-30T06:18:50.230Z,75.90
2022-09-30T06:19:22.021Z,75.80
2022-09-30T06:19:53.800Z,75.80
2022-09-30T06:21:31.007Z,75.60
2022-09-30T06:22:36.050Z,75.70
2022-09-30T06:23:07.807Z,75.80
2022-09-30T06:24:13.200Z,75.60
2022-09-30T06:25:17.876Z,75.60
2022-09-30T06:25:54.117Z,75.50
2022-09-30T06:27:30.232Z,75.50
2022-09-30T06:28:02.592Z,75.60
2022-09-30T06:28:35.413Z,75.70
2022-09-30T06:29:39.650Z,76.00
2022-09-30T06:30:11.550Z,75.80
2022-09-30T06:30:44.656Z,75.80
2022-09-30T06:31:16.393Z,75.70
2022-09-30T06:31:48.634Z,75.60
2022-09-30T06:32:55.965Z,75.70
2022-09-30T06:33:28.779Z,75.80
2022-09-30T06:35:06.555Z,76.00
2022-09-30T06:35:42.100Z,76.10
2022-09-30T06:36:13.862Z,76.30
2022-09-30T06:36:45.582Z,76.30
2022-09-30T06:37:18.622Z,76.10
2022-09-30T06:37:54.037Z,76.20
2022-09-30T06:38:27.329Z,76.20
2022-09-30T06:39:02.426Z,76.20
2022-09-30T06:39:34.179Z,76.30
2022-09-30T06:40:39.300Z,76.00
2022-09-30T06:41:11.189Z,76.20
2022-09-30T06:41:44.056Z,76.20
2022-09-30T06:42:18.930Z,76.30
2022-09-30T06:42:50.795Z,76.40
2022-09-30T06:44:00.860Z,76.00
2022-09-30T06:44:50.897Z,75.90
2022-09-30T06:45:32.059Z,76.00
2022-09-30T06:46:53.487Z,76.30
2022-09-30T06:48:00.913Z,76.00
2022-09-30T06:48:38.103Z,76.00
2022-09-30T06:49:23.595Z,76.20
2022-09-30T06:49:58.858Z,76.30
2022-09-30T06:50:32.086Z,76.10
2022-09-30T06:51:03.942Z,76.00
2022-09-30T06:51:36.126Z,76.10
2022-09-30T06:52:13.131Z,76.20
2022-09-30T06:52:45.523Z,76.10
2022-09-30T06:53:54.105Z,76.30
2022-09-30T06:54:26.952Z,76.10
2022-09-30T06:55:31.528Z,76.30
2022-09-30T06:56:03.450Z,76.30
2022-09-30T06:56:35.690Z,76.40
2022-09-30T06:57:07.567Z,76.30
2022-09-30T06:57:40.871Z,76.20
2022-09-30T06:58:16.645Z,76.30
2022-09-30T06:58:48.577Z,76.40
2022-09-30T06:59:20.377Z,76.40
2022-09-30T06:59:52.489Z,76.40
2022-09-30T07:00:26.214Z,76.50
2022-09-30T07:01:04.093Z,76.50
2022-09-30T07:01:37.283Z,76.40
2022-09-30T07:02:11.518Z,76.40
2022-09-30T07:02:43.425Z,76.40
2022-09-30T07:03:25.138Z,76.50
2022-09-30T07:03:58.037Z,76.60
2022-09-30T07:05:04.070Z,78.10
2022-09-30T07:05:38.793Z,76.50
2022-09-30T07:06:12.917Z,76.50
2022-09-30T07:06:45.123Z,76.50
2022-09-30T07:07:51.919Z,76.10
2022-09-30T07:08:25.777Z,76.00
2022-09-30T07:08:57.590Z,76.20
2022-09-30T07:09:29.410Z,76.30
2022-09-30T07:10:01.393Z,76.30
2022-09-30T07:10:33.131Z,76.30
2022-09-30T07:11:14.827Z,76.20
2022-09-30T07:12:18.794Z,76.40
2022-09-30T07:12:52.224Z,76.50
2022-09-30T07:13:24.138Z,76.50
2022-09-30T07:13:55.839Z,76.50
2022-09-30T07:14:27.554Z,76.30
2022-09-30T07:15:31.981Z,76.10
2022-09-30T07:16:03.914Z,76.00
2022-09-30T07:16:35.962Z,76.30
2022-09-30T07:17:07.822Z,76.20
2022-09-30T07:17:39.576Z,76.10
2022-09-30T07:18:11.401Z,76.20
2022-09-30T07:19:17.629Z,75.90
2022-09-30T07:19:52.018Z,75.90
2022-09-30T07:20:24.089Z,76.00
2022-09-30T07:20:56.926Z,76.10
2022-09-30T07:22:53.921Z,76.10
2022-09-30T07:23:28.758Z,76.30
2022-09-30T07:24:34.878Z,76.50
2022-09-30T07:25:07.089Z,76.50
2022-09-30T07:26:11.406Z,76.20
2022-09-30T07:26:45.117Z,76.20
2022-09-30T07:27:16.988Z,76.50
2022-09-30T07:27:48.719Z,76.50
2022-09-30T07:28:20.673Z,76.30
2022-09-30T07:30:09.290Z,76.00
2022-09-30T07:30:43.524Z,76.20
2022-09-30T07:31:37.067Z,76.30
2022-09-30T07:32:09.077Z,76.20
2022-09-30T07:32:41.228Z,76.30
2022-09-30T07:33:16.533Z,76.30
2022-09-30T07:33:51.162Z,76.50
2022-09-30T07:34:22.874Z,76.50
2022-09-30T07:34:54.638Z,76.50
2022-09-30T07:35:26.682Z,76.60
2022-09-30T07:36:00.394Z,76.60
2022-09-30T07:36:34.156Z,76.60
2022-09-30T07:37:06.050Z,76.80
2022-09-30T07:37:40.655Z,76.60
2022-09-30T07:38:12.384Z,76.60
2022-09-30T07:38:45.623Z,76.70
2022-09-30T07:39:17.347Z,76.80
2022-09-30T07:39:49.290Z,76.80
2022-09-30T07:40:21.013Z,76.60
2022-09-30T07:41:01.573Z,76.60
2022-09-30T07:41:35.903Z,76.70
2022-09-30T07:43:18.946Z,76.40
2022-09-30T07:43:56.506Z,76.70
2022-09-30T07:44:29.310Z,76.80
2022-09-30T07:45:02.137Z,76.80
2022-09-30T07:45:37.088Z,76.70
2022-09-30T07:46:13.137Z,76.70
2022-09-30T07:47:17.746Z,76.50
2022-09-30T07:47:53.670Z,76.70
2022-09-30T07:48:54.931Z,76.70
2022-09-30T07:49:26.886Z,76.80
2022-09-30T07:49:59.561Z,77.00
2022-09-30T07:50:31.288Z,76.90
2022-09-30T07:51:03.092Z,76.80
2022-09-30T07:51:38.066Z,76.80
2022-09-30T07:52:12.418Z,76.90
2022-09-30T07:52:44.124Z,76.90
2022-09-30T07:53:16.747Z,77.10
2022-09-30T07:54:26.756Z,76.60
2022-09-30T07:54:58.478Z,76.80
2022-09-30T07:56:04.622Z,76.60
2022-09-30T07:57:30.351Z,76.20
2022-09-30T07:58:02.118Z,76.20
2022-09-30T07:58:33.930Z,76.50
2022-09-30T07:59:06.854Z,76.70
2022-09-30T07:59:41.304Z,76.50
2022-09-30T08:01:09.479Z,76.30
2022-09-30T08:01:41.436Z,76.40
2022-09-30T08:02:18.323Z,76.40
2022-09-30T08:02:50.125Z,76.50
2022-09-30T08:05:03.346Z,76.10
2022-09-30T08:05:45.194Z,76.50
2022-09-30T08:06:18.847Z,76.60
2022-09-30T08:07:25.749Z,76.40
2022-09-30T08:08:29.633Z,76.40
2022-09-30T08:09:01.424Z,76.40
2022-09-30T08:10:38.419Z,76.10
2022-09-30T08:11:43.016Z,76.00
2022-09-30T08:12:14.775Z,76.10
2022-09-30T08:12:49.083Z,76.10
2022-09-30T08:13:20.839Z,76.10
2022-09-30T08:13:58.535Z,75.90
2022-09-30T08:14:30.382Z,75.90
2022-09-30T08:15:02.137Z,76.00
2022-09-30T08:15:34.352Z,76.30
2022-09-30T08:16:06.915Z,76.30
2022-09-30T08:16:38.875Z,76.10
2022-09-30T08:18:47.638Z,75.80
2022-09-30T08:19:22.184Z,76.10
2022-09-30T08:19:53.890Z,76.30
2022-09-30T08:20:25.697Z,76.20
2022-09-30T08:21:30.339Z,76.10
2022-09-30T08:22:39.065Z,76.30
2022-09-30T08:23:11.070Z,76.20
2022-09-30T08:23:42.813Z,76.00
2022-09-30T08:24:17.324Z,76.40
2022-09-30T08:24:49.024Z,76.40
2022-09-30T08:25:22.226Z,76.50
2022-09-30T08:26:05.026Z,76.50
2022-09-30T08:26:37.199Z,76.50
2022-09-30T08:27:09.032Z,76.50
2022-09-30T08:28:49.363Z,76.50
2022-09-30T08:29:42.449Z,76.40
2022-09-30T08:30:13.003Z,76.40
2022-09-30T08:30:44.867Z,76.70
2022-09-30T08:31:19.988Z,76.90
2022-09-30T08:31:52.321Z,76.70
2022-09-30T08:32:57.517Z,76.60
2022-09-30T08:33:29.303Z,76.80
2022-09-30T08:34:03.007Z,77.00
2022-09-30T08:34:35.628Z,77.10
2022-09-30T08:35:08.091Z,77.00
2022-09-30T08:36:51.127Z,77.20
2022-09-30T08:37:24.028Z,77.10
2022-09-30T08:37:55.766Z,77.00
2022-09-30T08:38:59.723Z,76.90
2022-09-30T08:39:31.505Z,76.90
2022-09-30T08:40:04.077Z,76.90
2022-09-30T08:41:01.036Z,76.90
2022-09-30T08:41:44.530Z,77.80
2022-09-30T08:42:50.519Z,77.20
2022-09-30T08:43:30.203Z,77.30
2022-09-30T08:44:25.603Z,77.30
2022-09-30T08:45:07.734Z,77.30
2022-09-30T08:46:23.718Z,77.50
2022-09-30T08:47:32.294Z,77.40
2022-09-30T08:49:03.392Z,77.60
2022-09-30T08:49:58.819Z,77.50
2022-09-30T08:50:34.617Z,77.50
2022-09-30T08:51:28.578Z,77.40
2022-09-30T08:52:05.296Z,77.40
2022-09-30T08:53:30.986Z,77.20
2022-09-30T08:54:08.053Z,77.50
2022-09-30T08:54:48.890Z,77.60
2022-09-30T08:55:28.953Z,77.60
2022-09-30T08:56:03.099Z,77.50
2022-09-30T08:56:35.410Z,77.40
2022-09-30T08:57:09.729Z,77.30
2022-09-30T08:57:47.464Z,77.20
2022-09-30T08:59:04.983Z,77.50
2022-09-30T08:59:49.361Z,77.70
2022-09-30T09:00:22.572Z,77.70
2022-09-30T09:01:02.374Z,77.90
2022-09-30T09:01:44.475Z,77.80
2022-09-30T09:02:25.957Z,77.70
2022-09-30T09:03:34.069Z,77.40
2022-09-30T09:04:40.005Z,77.90
2022-09-30T09:05:24.080Z,77.80
2022-09-30T09:06:05.817Z,77.80
2022-09-30T09:07:02.990Z,77.80
2022-09-30T09:07:52.043Z,78.20
2022-09-30T09:08:49.370Z,78.40
2022-09-30T09:09:36.148Z,78.40
2022-09-30T09:10:24.575Z,78.50
2022-09-30T09:11:50.434Z,78.10
2022-09-30T09:12:49.043Z,78.30
2022-09-30T09:13:51.162Z,78.50
2022-09-30T09:14:25.690Z,78.70
2022-09-30T09:15:25.204Z,78.80
2022-09-30T09:16:30.088Z,78.80
2022-09-30T09:17:22.274Z,78.80
2022-09-30T09:18:24.466Z,78.80
2022-09-30T09:19:12.632Z,78.80
2022-09-30T09:20:14.356Z,78.80
2022-09-30T09:20:59.863Z,78.90
2022-09-30T09:21:34.470Z,78.90
2022-09-30T09:22:10.893Z,78.90
2022-09-30T09:22:46.040Z,78.80
2022-09-30T09:23:17.861Z,78.90
2022-09-30T09:23:53.590Z,78.80
2022-09-30T09:24:26.499Z,78.90
2022-09-30T09:25:00.923Z,78.70
2022-09-30T09:25:33.808Z,78.80
2022-09-30T09:26:05.681Z,78.80
2022-09-30T09:26:37.559Z,78.80
2022-09-30T09:27:19.960Z,78.80
2022-09-30T09:28:57.556Z,78.40
2022-09-30T09:29:50.718Z,78.40
2022-09-30T09:30:25.676Z,79.00
2022-09-30T09:31:01.443Z,79.30
2022-09-30T09:31:33.381Z,78.60
2022-09-30T09:32:14.542Z,78.70
2022-09-30T09:32:55.187Z,78.80
2022-09-30T09:33:30.738Z,78.70
2022-09-30T09:34:10.869Z,78.50
2022-09-30T09:34:42.772Z,78.10
2022-09-30T09:35:16.295Z,78.80
2022-09-30T09:36:11.584Z,78.80
2022-09-30T09:36:49.318Z,79.30
2022-09-30T09:37:51.706Z,81.00
2022-09-30T09:39:13.835Z,79.10
2022-09-30T09:40:05.391Z,79.60
2022-09-30T09:40:57.389Z,79.30
2022-09-30T09:41:59.403Z,79.80
2022-09-30T09:42:50.367Z,80.30
2022-09-30T09:43:49.052Z,79.90
2022-09-30T09:44:23.406Z,79.90
2022-09-30T09:45:20.434Z,79.70
2022-09-30T09:46:22.745Z,79.50
2022-09-30T09:47:05.332Z,80.00
2022-09-30T09:47:37.029Z,79.50
2022-09-30T09:48:12.718Z,79.50
2022-09-30T09:48:44.786Z,79.50
2022-09-30T09:49:34.844Z,79.60
2022-09-30T09:50:21.532Z,79.90
2022-09-30T09:51:14.059Z,81.80
2022-09-30T09:51:58.634Z,80.10
2022-09-30T09:52:40.633Z,80.20
2022-09-30T09:53:38.422Z,80.20
2022-09-30T09:54:13.132Z,80.30
2022-09-30T09:54:48.216Z,81.30
2022-09-30T09:55:22.778Z,79.80
2022-09-30T09:55:59.995Z,80.30
2022-09-30T09:56:33.549Z,78.80
2022-09-30T09:57:09.371Z,82.10
2022-09-30T09:57:41.746Z,80.50
2022-09-30T09:58:17.394Z,80.40
2022-09-30T09:59:20.158Z,80.00
2022-09-30T09:59:57.307Z,80.50
2022-09-30T10:00:47.503Z,80.50
2022-09-30T10:01:32.744Z,80.40
2022-09-30T10:02:26.402Z,80.10
2022-09-30T10:03:12.967Z,80.30
2022-09-30T10:04:26.323Z,80.30
2022-09-30T10:05:03.502Z,80.40
2022-09-30T10:05:42.354Z,81.30
2022-09-30T10:06:14.058Z,80.60
2022-09-30T10:06:49.477Z,80.50
2022-09-30T10:07:21.248Z,80.80
2022-09-30T10:08:19.243Z,80.60
2022-09-30T10:08:56.755Z,81.00
2022-09-30T10:09:34.504Z,80.20
2022-09-30T10:10:30.172Z,80.10
2022-09-30T10:11:07.781Z,80.10
2022-09-30T10:11:39.528Z,80.60
2022-09-30T10:12:12.497Z,80.20
2022-09-30T10:12:48.607Z,80.30
2022-09-30T10:13:42.701Z,80.40
2022-09-30T10:14:22.386Z,80.40
2022-09-30T10:15:00.667Z,80.30
2022-09-30T10:15:33.257Z,80.30
2022-09-30T10:16:05.560Z,80.40
2022-09-30T10:16:38.252Z,80.30
2022-09-30T10:17:19.978Z,81.90
2022-09-30T10:18:00.766Z,80.40
2022-09-30T10:18:35.952Z,82.00
2022-09-30T10:20:01.418Z,80.50
2022-09-30T10:20:36.265Z,80.40
2022-09-30T10:21:21.329Z,80.40
2022-09-30T10:22:20.776Z,80.30
2022-09-30T10:23:01.575Z,80.50
2022-09-30T10:23:42.209Z,80.40
2022-09-30T10:24:31.777Z,80.40
2022-09-30T10:25:30.898Z,80.60
2022-09-30T10:26:14.845Z,81.20
2022-09-30T10:26:48.911Z,81.30
2022-09-30T10:27:30.342Z,80.70
2022-09-30T10:28:20.109Z,80.80
2022-09-30T10:28:58.117Z,80.70
2022-09-30T10:29:32.935Z,81.00
2022-09-30T10:30:05.189Z,80.50
2022-09-30T10:30:57.052Z,80.40
2022-09-30T10:31:36.915Z,80.70
2022-09-30T10:32:09.759Z,81.20
2022-09-30T10:32:41.559Z,80.80
2022-09-30T10:33:22.868Z,80.70
2022-09-30T10:34:14.145Z,81.00
2022-09-30T10:35:22.713Z,80.50
2022-09-30T10:36:18.766Z,80.50
2022-09-30T10:36:51.579Z,80.60
2022-09-30T10:37:25.045Z,80.50
2022-09-30T10:37:59.136Z,80.60
2022-09-30T10:38:34.642Z,80.50
2022-09-30T10:39:26.633Z,80.60
2022-09-30T10:40:34.284Z,80.70
2022-09-30T10:41:06.422Z,80.60
2022-09-30T10:41:38.979Z,80.60
2022-09-30T10:42:26.914Z,80.80
2022-09-30T10:42:59.192Z,81.00
2022-09-30T10:43:44.594Z,81.10
2022-09-30T10:44:56.874Z,80.60
2022-09-30T10:45:36.726Z,80.80
2022-09-30T10:46:27.104Z,81.10
2022-09-30T10:47:02.614Z,81.00
2022-09-30T10:48:19.645Z,80.50
2022-09-30T10:48:55.141Z,80.80
2022-09-30T10:49:45.614Z,80.80
2022-09-30T10:50:27.504Z,81.00
2022-09-30T10:51:00.924Z,80.60
2022-09-30T10:51:36.365Z,80.60
2022-09-30T10:52:20.687Z,80.80
2022-09-30T10:53:18.980Z,80.60
2022-09-30T10:53:50.795Z,80.70
2022-09-30T10:54:47.255Z,80.80
2022-09-30T10:55:22.336Z,80.90
2022-09-30T10:55:54.279Z,80.90
2022-09-30T10:56:33.385Z,80.80
2022-09-30T10:57:05.634Z,80.80
2022-09-30T10:57:38.588Z,81.00
2022-09-30T10:58:35.267Z,80.90
2022-09-30T10:59:35.124Z,81.00
2022-09-30T11:01:35.332Z,80.60
2022-09-30T11:02:22.675Z,80.70
2022-09-30T11:03:01.834Z,81.40
2022-09-30T11:03:48.985Z,80.80
2022-09-30T11:04:36.798Z,80.80
2022-09-30T11:05:20.026Z,81.20
2022-09-30T11:05:51.821Z,81.10
2022-09-30T11:06:24.916Z,81.00
2022-09-30T11:07:15.794Z,81.00
2022-09-30T11:08:22.051Z,81.20
2022-09-30T11:09:01.803Z,81.10
2022-09-30T11:10:43.498Z,80.80
2022-09-30T11:11:21.717Z,81.10
2022-09-30T11:12:00.873Z,81.00
2022-09-30T11:12:44.950Z,81.00
2022-09-30T11:13:19.375Z,81.00
2022-09-30T11:13:57.317Z,80.80
2022-09-30T11:14:56.414Z,80.80
2022-09-30T11:15:45.670Z,81.10
2022-09-30T11:16:17.648Z,80.90
2022-09-30T11:17:18.045Z,80.90
2022-09-30T11:18:49.040Z,81.20
2022-09-30T11:20:06.835Z,81.10
2022-09-30T11:20:45.654Z,81.20
2022-09-30T11:22:22.062Z,81.00
2022-09-30T11:24:27.765Z,81.30
2022-09-30T11:24:59.818Z,81.30
2022-09-30T11:25:54.879Z,81.00
2022-09-30T11:26:47.466Z,81.00
2022-09-30T11:27:33.298Z,81.40
2022-09-30T11:28:41.725Z,81.30
2022-09-30T11:29:28.548Z,81.40
2022-09-30T11:30:31.549Z,81.90
2022-09-30T11:31:47.595Z,81.90
2022-09-30T11:32:38.098Z,81.90
2022-09-30T11:33:33.547Z,82.40
2022-09-30T11:34:47.225Z,81.70
2022-09-30T11:35:27.868Z,82.10
2022-09-30T11:36:17.032Z,82.50
2022-09-30T11:37:05.708Z,83.30
2022-09-30T11:37:49.021Z,82.10
2022-09-30T11:39:07.852Z,82.80
2022-09-30T11:39:48.594Z,82.50
2022-09-30T11:40:30.922Z,82.80
2022-09-30T11:41:36.847Z,82.30
2022-09-30T11:42:22.339Z,82.60
2022-09-30T11:43:08.422Z,83.00
2022-09-30T11:43:58.881Z,82.50
2022-09-30T11:44:36.869Z,82.50
2022-09-30T11:45:41.200Z,82.70
2022-09-30T11:46:43.972Z,82.70
2022-09-30T11:47:57.205Z,82.40
2022-09-30T11:48:37.434Z,82.30
2022-09-30T11:49:14.972Z,82.30
2022-09-30T11:49:58.956Z,82.30
2022-09-30T11:50:50.160Z,82.50
2022-09-30T11:51:48.981Z,82.50
2022-09-30T11:53:05.186Z,82.50
2022-09-30T11:53:50.502Z,82.50
2022-09-30T11:54:34.053Z,81.90
2022-09-30T11:55:22.205Z,82.20
2022-09-30T11:56:20.542Z,82.10
2022-09-30T11:57:13.043Z,82.30
2022-09-30T11:57:53.473Z,82.40
2022-09-30T11:58:49.995Z,82.40
2022-09-30T11:59:51.388Z,82.60
2022-09-30T12:00:23.363Z,82.50
2022-09-30T12:01:08.138Z,82.70
2022-09-30T12:01:48.086Z,82.50
2022-09-30T12:02:35.043Z,81.80
2022-09-30T12:03:27.240Z,82.30
2022-09-30T12:04:13.893Z,82.30
2022-09-30T12:04:47.570Z,82.10
2022-09-30T12:05:41.820Z,82.40
2022-09-30T12:06:37.883Z,82.30
2022-09-30T12:07:37.820Z,82.40
2022-09-30T12:08:30.748Z,82.30
2022-09-30T12:09:27.241Z,82.20
2022-09-30T12:10:27.912Z,81.80
2022-09-30T12:11:10.550Z,82.20
2022-09-30T12:12:07.906Z,82.20
2022-09-30T12:13:26.622Z,81.20
2022-09-30T12:14:04.796Z,81.40
2022-09-30T12:15:01.937Z,81.40
2022-09-30T12:15:36.646Z,81.00
2022-09-30T12:16:16.775Z,80.70
2022-09-30T12:16:51.131Z,80.70
2022-09-30T12:18:05.034Z,80.90
2022-09-30T12:18:42.760Z,80.80
2022-09-30T12:19:20.702Z,80.80
2022-09-30T12:20:02.607Z,80.90
2022-09-30T12:20:42.204Z,81.10
2022-09-30T18:22:29.571Z,85.80
2022-09-30T18:23:01.356Z,85.00
2022-09-30T18:23:33.636Z,85.20
2022-09-30T18:24:06.290Z,84.50
2022-09-30T18:24:56.674Z,85.30
2022-09-30T18:25:28.506Z,85.30
2022-09-30T18:26:00.376Z,85.70
2022-09-30T18:26:35.649Z,85.80
2022-09-30T18:27:07.826Z,85.50
2022-09-30T18:27:39.553Z,85.50
2022-09-30T18:28:12.871Z,86.00
2022-09-30T18:28:44.730Z,86.00
2022-09-30T18:29:16.493Z,85.90
2022-09-30T18:29:49.410Z,86.10
2022-09-30T18:30:21.624Z,85.90
2022-09-30T18:30:53.429Z,85.80
2022-09-30T18:31:34.635Z,85.90
2022-09-30T18:32:06.992Z,86.00
2022-09-30T18:32:39.898Z,86.10
2022-09-30T18:33:11.722Z,86.70
2022-09-30T18:33:43.675Z,86.50
2022-09-30T18:34:15.578Z,86.60
2022-09-30T18:34:47.303Z,86.50
2022-09-30T18:35:21.626Z,86.40
2022-09-30T18:35:53.351Z,86.40
2022-09-30T18:36:26.576Z,86.90
2022-09-30T18:37:03.996Z,86.20
2022-09-30T18:37:35.770Z,87.30
2022-09-30T18:38:07.550Z,87.50
2022-09-30T18:38:39.265Z,86.90
2022-09-30T18:39:11.027Z,87.50
2022-09-30T18:39:42.788Z,87.10
2022-09-30T18:40:16.681Z,87.00
2022-09-30T18:40:49.883Z,87.10
2022-09-30T18:41:22.413Z,87.10
2022-09-30T18:41:56.173Z,87.30
2022-09-30T18:42:28.340Z,87.30
2022-09-30T18:43:02.618Z,87.20
2022-09-30T18:43:34.406Z,87.70
2022-09-30T18:44:06.166Z,88.30
2022-09-30T18:44:38.107Z,87.90
2022-09-30T18:45:12.403Z,87.90
2022-09-30T18:45:56.562Z,88.20
2022-09-30T18:46:43.495Z,88.40
2022-09-30T18:47:17.384Z,88.40
2022-09-30T18:47:49.484Z,88.80
2022-09-30T18:48:22.135Z,88.70
2022-09-30T18:48:54.595Z,88.40
2022-09-30T18:49:26.386Z,89.20
2022-09-30T18:49:58.274Z,88.50
2022-09-30T18:50:30.956Z,88.70
2022-09-30T18:51:07.057Z,88.60
2022-09-30T18:51:38.814Z,88.60
2022-09-30T18:52:10.603Z,89.60
2022-09-30T18:52:42.382Z,89.30
2022-09-30T18:53:14.074Z,88.90
2022-09-30T18:53:45.851Z,89.70
2022-09-30T18:54:17.980Z,89.70
2022-09-30T18:54:49.848Z,90.00
2022-09-30T18:55:21.982Z,89.20
2022-09-30T18:55:53.712Z,90.00
2022-09-30T18:56:31.650Z,89.30
2022-09-30T18:57:03.522Z,89.60
2022-09-30T18:57:35.662Z,89.60
2022-09-30T18:58:07.409Z,90.10
2022-09-30T18:58:42.277Z,89.20
2022-09-30T18:59:18.108Z,88.90
2022-09-30T18:59:52.913Z,89.70
2022-09-30T19:00:24.690Z,89.40
2022-09-30T19:00:59.909Z,89.60
2022-09-30T19:01:33.681Z,89.50
2022-09-30T19:02:05.823Z,89.00
2022-09-30T19:02:40.024Z,89.60
2022-09-30T19:03:14.002Z,89.30
2022-09-30T19:03:45.758Z,88.60
2022-09-30T19:04:17.913Z,90.00
2022-09-30T19:04:49.671Z,88.80
2022-09-30T19:05:21.621Z,88.50
2022-09-30T19:05:53.494Z,88.70
2022-09-30T19:06:25.597Z,88.60
2022-09-30T19:06:57.410Z,88.00
2022-09-30T19:07:29.139Z,89.00
2022-09-30T19:08:01.049Z,89.50
2022-09-30T19:08:32.766Z,88.40
2022-09-30T19:09:07.862Z,88.30
2022-09-30T19:09:40.975Z,88.90
2022-09-30T19:10:13.106Z,88.60
2022-09-30T19:10:44.830Z,88.80
2022-09-30T19:11:17.540Z,89.70
2022-09-30T19:11:51.374Z,88.80
2022-09-30T19:12:23.130Z,90.20
2022-09-30T19:12:54.927Z,89.50
2022-09-30T19:13:28.629Z,88.30
2022-09-30T19:14:02.989Z,88.20
2022-09-30T19:14:35.369Z,89.10
2022-09-30T19:15:10.283Z,89.00
2022-09-30T19:15:42.023Z,88.80
2022-09-30T19:16:20.008Z,88.50
2022-09-30T19:16:51.863Z,88.80
2022-09-30T19:17:23.746Z,89.50
2022-09-30T19:17:55.477Z,89.10
2022-09-30T19:18:31.069Z,88.40
2022-09-30T19:19:04.683Z,88.10
2022-09-30T19:19:41.126Z,88.60
2022-09-30T19:20:15.056Z,90.00
2022-09-30T19:20:46.998Z,89.50
2022-09-30T19:21:20.359Z,89.30
2022-09-30T19:21:52.213Z,89.20
2022-09-30T19:22:25.043Z,89.50
2022-09-30T19:22:57.278Z,89.10
2022-09-30T19:23:31.349Z,90.00
2022-09-30T19:24:05.475Z,89.20
2022-09-30T19:24:37.865Z,89.80
2022-09-30T19:25:11.734Z,89.90
2022-09-30T19:25:43.842Z,89.70
2022-09-30T19:26:15.686Z,90.00
2022-09-30T19:26:47.937Z,89.50
2022-09-30T19:27:22.866Z,90.60
2022-09-30T19:27:55.701Z,90.10
2022-09-30T19:28:27.666Z,89.80
2022-09-30T19:28:59.721Z,89.30
2022-09-30T19:29:33.070Z,90.40
2022-09-30T19:30:06.585Z,90.10
2022-09-30T19:30:44.676Z,90.20
2022-09-30T19:31:17.756Z,90.20
2022-09-30T19:31:49.554Z,90.10
2022-09-30T19:32:21.336Z,90.00
2022-09-30T19:33:00.167Z,90.80
2022-09-30T19:33:32.607Z,90.60
2022-09-30T19:34:05.253Z,90.70
2022-09-30T19:34:37.114Z,90.80
2022-09-30T19:35:14.128Z,90.30
2022-09-30T19:35:45.849Z,90.90
2022-09-30T19:36:17.710Z,90.70
2022-09-30T19:36:51.986Z,90.90
2022-09-30T19:37:27.597Z,90.80
2022-09-30T19:38:02.931Z,90.80
2022-09-30T19:38:38.122Z,90.40
2022-09-30T19:39:12.336Z,90.70
2022-09-30T19:39:46.226Z,90.80
2022-09-30T19:40:21.947Z,91.00
2022-09-30T19:40:57.079Z,90.70
2022-09-30T19:41:31.989Z,90.50
2022-09-30T19:42:05.048Z,91.10
2022-09-30T19:42:39.521Z,90.60
2022-09-30T19:43:11.395Z,90.70
2022-09-30T19:43:46.526Z,90.70
2022-09-30T19:44:19.838Z,90.60
2022-09-30T19:44:51.866Z,91.00
2022-09-30T19:45:25.831Z,90.80
2022-09-30T19:46:03.355Z,91.00
2022-09-30T19:46:35.492Z,91.00
2022-09-30T19:47:07.238Z,91.20
2022-09-30T19:47:39.007Z,91.00
2022-09-30T19:48:10.739Z,91.20
2022-09-30T19:48:42.532Z,91.30
2022-09-30T19:49:15.334Z,91.20
2022-09-30T19:49:47.077Z,91.00
2022-09-30T19:50:19.163Z,91.10
2022-09-30T19:51:02.219Z,91.10
2022-09-30T19:51:34.593Z,90.80
2022-09-30T19:52:16.133Z,91.10
2022-09-30T19:52:56.944Z,91.00
2022-09-30T19:53:31.064Z,91.30
2022-09-30T19:54:07.247Z,90.70
2022-09-30T19:54:41.817Z,90.70
2022-09-30T19:55:16.856Z,90.80
2022-09-30T19:55:50.991Z,91.00
2022-09-30T19:56:24.112Z,91.10
2022-09-30T19:56:56.078Z,90.40
2022-09-30T19:57:27.809Z,90.50
2022-09-30T19:57:59.571Z,90.90
2022-09-30T19:58:37.557Z,90.60
2022-09-30T19:59:09.335Z,90.80
2022-09-30T19:59:41.125Z,90.90
2022-09-30T20:00:13.122Z,90.70
2022-09-30T20:00:53.282Z,90.20